sensor_id;sensor_type;location;lat;lon;timestamp;temperature;humidity
40528;DHT22;26230;51.268;6.534;2024-02-26T00:00:00;8.8;100
40528;DHT22;26230;51.268;6.534;2024-02-26T00:10:01;9.0;100
40528;DHT22;26230;51.268;6.534;2024-02-26T00:20:01;8.9;100
40528;DHT22;26230;51.268;6.534;2024-02-26T00:30:00;8.8;100
40528;DHT22;26230;51.268;6.534;2024-02-26T00:40:00;8.7;100
40528;DHT22;26230;51.268;6.534;2024-02-26T00:50:00;8.7;100
40528;DHT22;26230;51.268;6.534;2024-02-26T01:00:00;8.7;100
40528;DHT22;26230;51.268;6.534;2024-02-26T01:10:00;8.7;100
40528;DHT22;26230;51.268;6.534;2024-02-26T01:20:00;8.7;100
40528;DHT22;26230;51.268;6.534;2024-02-26T01:30:00;8.7;100
40528;DHT22;26230;51.268;6.534;2024-02-26T01:40:00;8.5;100
40528;DHT22;26230;51.268;6.534;2024-02-26T01:50:00;8.5;100
40528;DHT22;26230;51.268;6.534;2024-02-26T02:00:00;8.5;100
40528;DHT22;26230;51.268;6.534;2024-02-26T02:10:00;8.6;100
40528;DHT22;26230;51.268;6.534;2024-02-26T02:20:01;8.4;100
40528;DHT22;26230;51.268;6.534;2024-02-26T02:30:00;8.3;100
40528;DHT22;26230;51.268;6.534;2024-02-26T02:40:00;8.0;100
40528;DHT22;26230;51.268;6.534;2024-02-26T02:50:00;7.9;100
40528;DHT22;26230;51.268;6.534;2024-02-26T03:00:00;7.7;100
40528;DHT22;26230;51.268;6.534;2024-02-26T03:10:00;7.7;100
40528;DHT22;26230;51.268;6.534;2024-02-26T03:20:00;7.7;100
40528;DHT22;26230;51.268;6.534;2024-02-26T03:30:00;7.6;100
40528;DHT22;26230;51.268;6.534;2024-02-26T03:40:00;7.6;100
40528;DHT22;26230;51.268;6.534;2024-02-26T03:50:00;7.7;100
40528;DHT22;26230;51.268;6.534;2024-02-26T04:00:00;7.5;100
40528;DHT22;26230;51.268;6.534;2024-02-26T04:10:00;7.4;100
40528;DHT22;26230;51.268;6.534;2024-02-26T04:20:02;7.6;100
40528;DHT22;26230;51.268;6.534;2024-02-26T04:30:00;7.5;100
40528;DHT22;26230;51.268;6.534;2024-02-26T04:40:00;7.4;100
40528;DHT22;26230;51.268;6.534;2024-02-26T04:50:00;7.4;100
40528;DHT22;26230;51.268;6.534;2024-02-26T05:00:00;7.3;100
40528;DHT22;26230;51.268;6.534;2024-02-26T05:10:02;7.3;100
40528;DHT22;26230;51.268;6.534;2024-02-26T05:20:00;7.2;100
40528;DHT22;26230;51.268;6.534;2024-02-26T05:30:00;7.1;100
40528;DHT22;26230;51.268;6.534;2024-02-26T05:40:00;7.1;100
40528;DHT22;26230;51.268;6.534;2024-02-26T05:50:02;7.1;100
40528;DHT22;26230;51.268;6.534;2024-02-26T06:00:00;7.1;100
40528;DHT22;26230;51.268;6.534;2024-02-26T06:10:00;7.1;100
40528;DHT22;26230;51.268;6.534;2024-02-26T06:20:00;7.1;100
40528;DHT22;26230;51.268;6.534;2024-02-26T06:30:02;7.0;100
40528;DHT22;26230;51.268;6.534;2024-02-26T06:40:00;7.0;100
40528;DHT22;26230;51.268;6.534;2024-02-26T06:50:02;7.0;100
40528;DHT22;26230;51.268;6.534;2024-02-26T07:00:00;7.0;100
40528;DHT22;26230;51.268;6.534;2024-02-26T07:10:00;7.0;100
40528;DHT22;26230;51.268;6.534;2024-02-26T07:20:00;7.0;100
40528;DHT22;26230;51.268;6.534;2024-02-26T07:30:00;7.0;100
40528;DHT22;26230;51.268;6.534;2024-02-26T07:40:00;7.0;100
40528;DHT22;26230;51.268;6.534;2024-02-26T07:50:02;7.1;100
40528;DHT22;26230;51.268;6.534;2024-02-26T08:00:00;7.0;100
40528;DHT22;26230;51.268;6.534;2024-02-26T08:10:00;7.1;100
40528;DHT22;26230;51.268;6.534;2024-02-26T08:20:00;7.3;100
40528;DHT22;26230;51.268;6.534;2024-02-26T08:30:00;7.2;100
40528;DHT22;26230;51.268;6.534;2024-02-26T08:40:00;7.2;100
40528;DHT22;26230;51.268;6.534;2024-02-26T08:50:02;7.3;100
40528;DHT22;26230;51.268;6.534;2024-02-26T09:00:00;7.4;100
40528;DHT22;26230;51.268;6.534;2024-02-26T09:10:00;7.4;100
40528;DHT22;26230;51.268;6.534;2024-02-26T09:20:01;7.4;100
40528;DHT22;26230;51.268;6.534;2024-02-26T09:30:00;7.3;100
40528;DHT22;26230;51.268;6.534;2024-02-26T09:40:00;7.4;100
40528;DHT22;26230;51.268;6.534;2024-02-26T09:50:00;7.4;100
40528;DHT22;26230;51.268;6.534;2024-02-26T10:00:00;7.4;100
40528;DHT22;26230;51.268;6.534;2024-02-26T10:10:00;7.4;100
40528;DHT22;26230;51.268;6.534;2024-02-26T10:20:16;7.4;100
40528;DHT22;26230;51.268;6.534;2024-02-26T10:30:04;7.3;100
40528;DHT22;26230;51.268;6.534;2024-02-26T10:40:02;7.4;100
40528;DHT22;26230;51.268;6.534;2024-02-26T10:50:01;7.6;100
40528;DHT22;26230;51.268;6.534;2024-02-26T11:00:01;7.6;100
40528;DHT22;26230;51.268;6.534;2024-02-26T11:10:00;7.6;100
40528;DHT22;26230;51.268;6.534;2024-02-26T11:20:00;7.6;100
40528;DHT22;26230;51.268;6.534;2024-02-26T11:30:00;7.7;100
40528;DHT22;26230;51.268;6.534;2024-02-26T11:40:00;7.8;100
40528;DHT22;26230;51.268;6.534;2024-02-26T11:50:31;7.9;100
40528;DHT22;26230;51.268;6.534;2024-02-26T12:10:17;8.1;100
40528;DHT22;26230;51.268;6.534;2024-02-26T12:20:08;8.2;100
40528;DHT22;26230;51.268;6.534;2024-02-26T12:30:00;8.2;100
40528;DHT22;26230;51.268;6.534;2024-02-26T12:40:00;8.3;100
40528;DHT22;26230;51.268;6.534;2024-02-26T12:50:00;8.4;100
40528;DHT22;26230;51.268;6.534;2024-02-26T13:00:00;8.4;100
40528;DHT22;26230;51.268;6.534;2024-02-26T13:10:01;8.4;100
40528;DHT22;26230;51.268;6.534;2024-02-26T13:20:02;8.5;100
40528;DHT22;26230;51.268;6.534;2024-02-26T13:30:12;8.5;100
40528;DHT22;26230;51.268;6.534;2024-02-26T13:40:00;8.7;100
40528;DHT22;26230;51.268;6.534;2024-02-26T13:50:00;8.7;100
40528;DHT22;26230;51.268;6.534;2024-02-26T14:00:00;8.7;100
40528;DHT22;26230;51.268;6.534;2024-02-26T14:10:00;8.8;100
40528;DHT22;26230;51.268;6.534;2024-02-26T14:20:00;8.9;100
40528;DHT22;26230;51.268;6.534;2024-02-26T14:30:02;8.8;100
40528;DHT22;26230;51.268;6.534;2024-02-26T14:40:02;8.8;100
40528;DHT22;26230;51.268;6.534;2024-02-26T14:50:00;8.9;100
40528;DHT22;26230;51.268;6.534;2024-02-26T15:00:00;8.9;100
40528;DHT22;26230;51.268;6.534;2024-02-26T15:10:00;8.9;100
40528;DHT22;26230;51.268;6.534;2024-02-26T15:20:00;8.9;100
40528;DHT22;26230;51.268;6.534;2024-02-26T15:30:02;8.8;100
40528;DHT22;26230;51.268;6.534;2024-02-26T15:40:00;8.7;100
40528;DHT22;26230;51.268;6.534;2024-02-26T15:50:01;8.6;100
40528;DHT22;26230;51.268;6.534;2024-02-26T16:00:01;8.6;100
40528;DHT22;26230;51.268;6.534;2024-02-26T16:10:00;8.5;100
40528;DHT22;26230;51.268;6.534;2024-02-26T16:20:00;8.5;100
40528;DHT22;26230;51.268;6.534;2024-02-26T16:30:00;8.4;100
40528;DHT22;26230;51.268;6.534;2024-02-26T16:40:02;8.4;100
40528;DHT22;26230;51.268;6.534;2024-02-26T16:50:00;8.4;100
40528;DHT22;26230;51.268;6.534;2024-02-26T17:00:00;8.3;100
40528;DHT22;26230;51.268;6.534;2024-02-26T17:10:00;8.2;100
40528;DHT22;26230;51.268;6.534;2024-02-26T17:20:02;8.2;100
40528;DHT22;26230;51.268;6.534;2024-02-26T17:30:00;8.1;100
40528;DHT22;26230;51.268;6.534;2024-02-26T17:40:00;8.1;100
40528;DHT22;26230;51.268;6.534;2024-02-26T17:50:00;8.2;100
40528;DHT22;26230;51.268;6.534;2024-02-26T18:00:00;8.1;100
40528;DHT22;26230;51.268;6.534;2024-02-26T18:10:00;8.1;100
40528;DHT22;26230;51.268;6.534;2024-02-26T18:20:00;8.1;100
40528;DHT22;26230;51.268;6.534;2024-02-26T18:30:00;8.4;100
40528;DHT22;26230;51.268;6.534;2024-02-26T18:40:00;8.3;100
40528;DHT22;26230;51.268;6.534;2024-02-26T18:50:00;8.3;100
40528;DHT22;26230;51.268;6.534;2024-02-26T19:00:00;8.3;100
40528;DHT22;26230;51.268;6.534;2024-02-26T19:10:00;8.3;100
40528;DHT22;26230;51.268;6.534;2024-02-26T19:20:00;8.4;100
40528;DHT22;26230;51.268;6.534;2024-02-26T19:30:02;8.5;100
40528;DHT22;26230;51.268;6.534;2024-02-26T19:40:00;8.4;100
40528;DHT22;26230;51.268;6.534;2024-02-26T19:50:00;8.4;100
40528;DHT22;26230;51.268;6.534;2024-02-26T20:00:01;8.4;100
40528;DHT22;26230;51.268;6.534;2024-02-26T20:10:00;8.3;100
40528;DHT22;26230;51.268;6.534;2024-02-26T20:20:00;8.3;100
40528;DHT22;26230;51.268;6.534;2024-02-26T20:30:01;8.3;100
40528;DHT22;26230;51.268;6.534;2024-02-26T20:40:00;8.2;100
40528;DHT22;26230;51.268;6.534;2024-02-26T20:50:00;8.3;100
40528;DHT22;26230;51.268;6.534;2024-02-26T21:00:00;8.2;100
40528;DHT22;26230;51.268;6.534;2024-02-26T21:10:00;8.2;100
40528;DHT22;26230;51.268;6.534;2024-02-26T21:20:00;8.2;100
40528;DHT22;26230;51.268;6.534;2024-02-26T21:30:00;8.2;100
40528;DHT22;26230;51.268;6.534;2024-02-26T21:40:02;8.1;100
40528;DHT22;26230;51.268;6.534;2024-02-26T21:50:00;8.2;100
40528;DHT22;26230;51.268;6.534;2024-02-26T22:00:02;8.3;100
40528;DHT22;26230;51.268;6.534;2024-02-26T22:10:02;8.3;100
40528;DHT22;26230;51.268;6.534;2024-02-26T22:20:00;8.3;100
40528;DHT22;26230;51.268;6.534;2024-02-26T22:30:00;8.1;100
40528;DHT22;26230;51.268;6.534;2024-02-26T22:40:00;8.1;100
40528;DHT22;26230;51.268;6.534;2024-02-26T22:50:02;8.1;100
40528;DHT22;26230;51.268;6.534;2024-02-26T23:00:00;8.0;100
40528;DHT22;26230;51.268;6.534;2024-02-26T23:10:00;8.0;100
40528;DHT22;26230;51.268;6.534;2024-02-26T23:20:00;8.1;100
40528;DHT22;26230;51.268;6.534;2024-02-26T23:30:01;8.0;100
40528;DHT22;26230;51.268;6.534;2024-02-26T23:40:02;7.9;100
40528;DHT22;26230;51.268;6.534;2024-02-26T23:50:00;7.8;100
